createdAt,value
2022-12-01T00:01:21.425Z,46.75
2022-12-01T00:03:50.370Z,50.65
2022-12-01T00:06:19.940Z,58.08
2022-12-01T00:09:08.379Z,51.60
2022-12-01T00:11:37.230Z,44.25
2022-12-01T00:14:05.347Z,44.00
2022-12-01T00:16:33.625Z,49.63
2022-12-01T00:19:02.764Z,49.65
2022-12-01T00:21:30.462Z,48.78
2022-12-01T00:23:59.022Z,51.55
2022-12-01T00:26:28.090Z,60.50
2022-12-01T00:28:57.571Z,54.20
2022-12-01T00:31:25.770Z,56.25
2022-12-01T00:33:56.782Z,60.30
2022-12-01T00:36:26.040Z,51.30
2022-12-01T00:38:55.283Z,53.53
2022-12-01T00:41:23.955Z,57.05
2022-12-01T00:43:52.418Z,54.40
2022-12-01T00:46:20.103Z,60.05
2022-12-01T00:48:47.760Z,66.28
2022-12-01T00:51:15.307Z,56.28
2022-12-01T00:53:44.175Z,58.13
2022-12-01T00:56:11.737Z,58.88
2022-12-01T00:58:39.257Z,64.43
2022-12-01T01:01:07.330Z,60.90
2022-12-01T01:03:35.583Z,58.47
2022-12-01T01:06:07.562Z,63.72
2022-12-01T01:08:35.247Z,65.07
2022-12-01T01:11:05.456Z,58.15
2022-12-01T01:13:33.418Z,58.58
2022-12-01T01:16:03.032Z,60.17
2022-12-01T01:18:31.008Z,60.92
2022-12-01T01:20:58.977Z,70.10
2022-12-01T01:23:27.349Z,58.75
2022-12-01T01:25:54.949Z,58.72
2022-12-01T01:28:23.905Z,65.38
2022-12-01T01:30:51.479Z,57.40
2022-12-01T01:33:18.981Z,61.08
2022-12-01T01:35:46.481Z,58.67
2022-12-01T01:38:14.075Z,53.85
2022-12-01T01:40:44.030Z,65.78
2022-12-01T01:43:15.959Z,61.47
2022-12-01T01:45:45.428Z,62.58
2022-12-01T01:48:14.400Z,48.90
2022-12-01T01:50:42.499Z,46.72
2022-12-01T01:53:13.475Z,53.17
2022-12-01T01:55:41.062Z,45.42
2022-12-01T01:58:11.093Z,38.60
2022-12-01T02:00:40.106Z,46.67
2022-12-01T02:03:10.514Z,46.90
2022-12-01T02:05:38.971Z,45.33
2022-12-01T02:08:12.191Z,48.70
2022-12-01T02:10:57.337Z,43.78
2022-12-01T02:13:34.596Z,45.83
2022-12-01T02:16:10.887Z,44.13
2022-12-01T02:18:51.268Z,50.10
2022-12-01T02:21:38.577Z,45.40
2022-12-01T02:24:39.674Z,48.83
2022-12-01T02:27:20.873Z,56.33
2022-12-01T02:30:07.087Z,52.92
2022-12-01T02:32:49.835Z,53.10
2022-12-01T02:35:24.375Z,51.00
2022-12-01T02:38:08.056Z,48.83
2022-12-01T02:40:42.287Z,48.67
2022-12-01T02:43:17.144Z,58.60
2022-12-01T02:45:49.614Z,52.17
2022-12-01T02:48:24.576Z,52.60
2022-12-01T02:50:54.663Z,55.25
2022-12-01T02:53:22.409Z,53.83
2022-12-01T02:55:52.957Z,54.95
2022-12-01T02:58:21.040Z,49.28
2022-12-01T03:01:18.128Z,57.30
2022-12-01T03:04:01.588Z,56.63
2022-12-01T03:06:40.970Z,52.63
2022-12-01T03:09:17.178Z,52.10
2022-12-01T03:11:51.522Z,44.47
2022-12-01T03:14:30.065Z,54.33
2022-12-01T03:16:59.761Z,51.90
2022-12-01T03:19:36.410Z,49.35
2022-12-01T03:22:09.817Z,48.42
2022-12-01T03:24:39.790Z,48.97
2022-12-01T03:27:09.766Z,48.50
2022-12-01T03:29:41.267Z,54.28
2022-12-01T03:32:15.559Z,51.05
2022-12-01T03:34:50.830Z,50.70
2022-12-01T03:37:22.562Z,46.38
2022-12-01T03:39:58.752Z,52.83
2022-12-01T03:42:32.815Z,48.20
2022-12-01T03:45:04.894Z,40.85
2022-12-01T03:47:35.571Z,39.72
2022-12-01T03:50:06.781Z,46.70
2022-12-01T03:52:44.817Z,54.42
2022-12-01T03:55:18.646Z,52.92
2022-12-01T03:57:51.154Z,53.85
2022-12-01T04:00:20.478Z,55.78
2022-12-01T04:02:48.858Z,53.05
2022-12-01T04:05:22.475Z,55.10
2022-12-01T04:07:53.167Z,57.97
2022-12-01T04:10:20.837Z,51.42
2022-12-01T04:12:47.452Z,64.80
2022-12-01T04:15:16.598Z,45.83
2022-12-01T04:17:45.501Z,47.75
2022-12-01T04:20:15.211Z,57.97
2022-12-01T04:22:44.317Z,48.28
2022-12-01T04:25:12.509Z,52.40
2022-12-01T04:27:40.009Z,51.63
2022-12-01T04:30:09.059Z,60.15
2022-12-01T04:32:39.053Z,45.30
2022-12-01T04:35:07.647Z,51.83
2022-12-01T04:37:35.227Z,55.03
2022-12-01T04:40:05.704Z,39.13
2022-12-01T04:42:33.368Z,47.00
2022-12-01T04:45:00.927Z,52.03
2022-12-01T04:47:28.549Z,48.45
2022-12-01T04:49:56.207Z,47.13
2022-12-01T04:52:23.800Z,47.17
2022-12-01T04:54:51.278Z,39.85
2022-12-01T04:57:20.104Z,46.42
2022-12-01T04:59:47.974Z,44.13
2022-12-01T05:02:15.975Z,38.38
2022-12-01T05:04:46.045Z,32.47
2022-12-01T05:07:13.572Z,38.05
2022-12-01T05:09:41.062Z,37.97
2022-12-01T05:12:08.660Z,36.35
2022-12-01T05:14:37.529Z,35.13
2022-12-01T05:17:05.080Z,32.72
2022-12-01T05:19:50.435Z,35.50
2022-12-01T05:22:26.985Z,37.97
2022-12-01T05:25:06.094Z,35.88
2022-12-01T05:27:33.598Z,35.40
2022-12-01T05:30:02.479Z,32.97
2022-12-01T05:32:30.002Z,33.40
2022-12-01T05:34:57.499Z,32.58
2022-12-01T05:37:25.012Z,34.67
2022-12-01T05:39:52.504Z,37.42
2022-12-01T05:42:19.987Z,35.42
2022-12-01T05:44:47.480Z,37.13
2022-12-01T05:47:16.317Z,39.67
2022-12-01T05:49:43.788Z,30.88
2022-12-01T05:52:11.430Z,28.42
2022-12-01T05:54:38.958Z,38.53
2022-12-01T05:57:06.472Z,38.38
2022-12-01T05:59:34.173Z,38.17
2022-12-01T06:02:01.811Z,37.95
2022-12-01T06:04:30.808Z,45.10
2022-12-01T06:06:58.344Z,42.58
2022-12-01T06:09:26.099Z,33.58
2022-12-01T06:11:53.664Z,33.05
2022-12-01T06:14:21.179Z,36.00
2022-12-01T06:16:48.752Z,41.90
2022-12-01T06:19:16.277Z,33.42
2022-12-01T06:21:45.126Z,39.90
2022-12-01T06:24:12.917Z,36.28
2022-12-01T06:26:40.452Z,41.60
2022-12-01T06:29:07.942Z,36.10
2022-12-01T06:31:35.457Z,39.13
2022-12-01T06:34:02.959Z,36.95
2022-12-01T06:36:30.499Z,31.42
2022-12-01T06:38:59.359Z,39.35
2022-12-01T06:41:26.875Z,34.97
2022-12-01T06:43:54.710Z,41.95
2022-12-01T06:46:22.346Z,34.50
2022-12-01T06:48:49.961Z,32.55
2022-12-01T06:51:17.435Z,37.28
2022-12-01T06:53:44.913Z,38.00
2022-12-01T06:56:13.813Z,41.42
2022-12-01T06:58:41.570Z,36.50
2022-12-01T07:01:10.543Z,28.70
2022-12-01T07:03:38.183Z,35.17
2022-12-01T07:06:06.601Z,32.15
2022-12-01T07:08:34.116Z,35.85
2022-12-01T07:11:03.893Z,34.13
2022-12-01T07:13:34.002Z,33.30
2022-12-01T07:16:02.493Z,28.45
2022-12-01T07:18:30.027Z,32.75
2022-12-01T07:21:01.065Z,38.13
2022-12-01T07:23:28.579Z,35.97
2022-12-01T07:25:59.789Z,30.70
2022-12-01T07:28:28.287Z,30.20
2022-12-01T07:31:02.536Z,35.20
2022-12-01T07:33:30.056Z,37.05
2022-12-01T07:35:57.555Z,26.40
2022-12-01T07:38:25.353Z,28.77
2022-12-01T07:40:52.825Z,31.88
2022-12-01T07:43:20.307Z,33.33
2022-12-01T07:45:48.025Z,34.28
2022-12-01T07:48:16.889Z,39.83
2022-12-01T07:50:44.393Z,37.47
2022-12-01T07:53:11.899Z,36.00
2022-12-01T07:55:39.332Z,37.50
2022-12-01T07:58:07.031Z,33.92
2022-12-01T08:00:34.567Z,36.63
2022-12-01T08:03:02.128Z,39.60
2022-12-01T08:05:31.046Z,39.22
2022-12-01T08:07:58.600Z,37.00
2022-12-01T08:10:26.225Z,35.67
2022-12-01T08:12:54.821Z,37.70
2022-12-01T08:15:22.372Z,35.53
2022-12-01T08:17:49.886Z,39.42
2022-12-01T08:20:23.533Z,40.28
2022-12-01T08:22:52.975Z,38.45
2022-12-01T08:25:20.417Z,32.97
2022-12-01T08:27:47.878Z,42.15
2022-12-01T08:30:15.568Z,39.47
2022-12-01T08:32:43.075Z,48.33
2022-12-01T08:35:10.939Z,43.28
2022-12-01T08:37:38.429Z,43.72
2022-12-01T08:40:08.997Z,52.63
2022-12-01T08:42:36.440Z,47.13
2022-12-01T08:45:04.068Z,45.55
2022-12-01T08:47:31.729Z,46.38
2022-12-01T08:49:59.383Z,50.55
2022-12-01T08:52:26.897Z,41.20
2022-12-01T08:54:54.727Z,42.50
2022-12-01T08:57:23.553Z,41.72
2022-12-01T08:59:51.496Z,40.90
2022-12-01T09:02:23.194Z,45.63
2022-12-01T09:04:51.168Z,35.58
2022-12-01T09:07:26.049Z,43.83
2022-12-01T09:12:23.353Z,41.10
2022-12-01T09:14:50.808Z,39.65
2022-12-01T09:17:18.705Z,43.58
2022-12-01T09:19:46.370Z,38.88
2022-12-01T09:22:13.990Z,32.75
2022-12-01T09:24:41.465Z,39.92
2022-12-01T09:27:11.001Z,32.67
2022-12-01T09:29:39.800Z,34.72
2022-12-01T09:32:07.480Z,30.58
2022-12-01T09:34:34.939Z,34.28
2022-12-01T09:37:02.397Z,27.70
2022-12-01T09:39:29.898Z,30.23
2022-12-01T09:42:01.499Z,29.35
2022-12-01T09:44:38.269Z,27.90
2022-12-01T09:47:14.649Z,29.23
2022-12-01T09:49:51.273Z,26.60
2022-12-01T09:52:20.747Z,24.92
2022-12-01T09:54:48.861Z,25.42
2022-12-01T09:57:21.596Z,32.63
2022-12-01T09:59:49.654Z,33.55
2022-12-01T10:02:35.001Z,30.15
2022-12-01T10:05:07.437Z,30.13
2022-12-01T10:07:40.402Z,31.00
2022-12-01T10:10:14.306Z,35.83
2022-12-01T10:12:44.174Z,33.78
2022-12-01T10:15:33.126Z,38.17
2022-12-01T10:18:15.337Z,33.80
2022-12-01T10:20:49.544Z,37.42
2022-12-01T10:23:34.912Z,33.78
2022-12-01T10:26:14.024Z,36.65
2022-12-01T10:28:59.028Z,35.13
2022-12-01T10:31:34.455Z,35.30
2022-12-01T10:34:07.028Z,31.80
2022-12-01T10:36:35.356Z,40.17
2022-12-01T10:39:05.207Z,36.20
2022-12-01T10:41:36.363Z,39.83
2022-12-01T10:44:06.912Z,40.70
2022-12-01T10:46:40.556Z,44.25
2022-12-01T10:49:12.116Z,42.47
2022-12-01T10:51:54.631Z,44.75
2022-12-01T10:54:23.196Z,48.55
2022-12-01T10:56:56.024Z,52.67
2022-12-01T10:59:28.065Z,49.10
2022-12-01T11:01:56.387Z,54.40
2022-12-01T11:04:34.269Z,47.38
2022-12-01T11:07:02.095Z,59.03
2022-12-01T11:09:30.961Z,56.10
2022-12-01T11:12:00.440Z,58.88
2022-12-01T11:14:36.328Z,63.33
2022-12-01T11:17:17.239Z,68.72
2022-12-01T11:19:46.303Z,57.50
2022-12-01T11:22:23.413Z,68.75
2022-12-01T11:24:59.352Z,66.25
2022-12-01T11:27:30.505Z,89.40
2022-12-01T11:30:02.593Z,81.85
2022-12-01T11:32:32.208Z,79.63
2022-12-01T11:35:04.064Z,76.55
2022-12-01T11:37:37.158Z,76.57
2022-12-01T11:40:14.812Z,86.70
2022-12-01T11:42:44.052Z,91.88
2022-12-01T11:45:25.749Z,83.88
2022-12-01T11:48:02.545Z,97.00
2022-12-01T11:50:34.457Z,78.78
2022-12-01T11:53:02.549Z,94.28
2022-12-01T11:55:31.590Z,88.15
2022-12-01T11:58:05.003Z,86.95
2022-12-01T12:00:45.198Z,96.97
2022-12-01T12:03:21.899Z,80.20
2022-12-01T12:06:38.483Z,76.88
2022-12-01T12:11:44.395Z,67.90
2022-12-01T12:14:30.619Z,56.97
2022-12-01T12:17:22.951Z,65.05
2022-12-01T12:20:21.845Z,63.85
2022-12-01T12:23:03.361Z,60.90
2022-12-01T12:25:38.344Z,62.20
2022-12-01T12:28:19.597Z,62.83
2022-12-01T12:30:56.857Z,59.65
2022-12-01T12:33:39.101Z,64.03
2022-12-01T12:36:16.460Z,65.47
2022-12-01T12:39:03.602Z,62.50
2022-12-01T12:41:37.400Z,61.30
2022-12-01T12:44:24.838Z,59.65
2022-12-01T12:47:03.814Z,57.22
2022-12-01T12:49:41.523Z,60.20
2022-12-01T12:52:13.537Z,62.95
2022-12-01T12:54:50.026Z,56.88
2022-12-01T12:57:28.219Z,58.80
2022-12-01T12:59:59.992Z,57.58
2022-12-01T13:02:33.983Z,59.97
2022-12-01T13:05:07.792Z,61.10
2022-12-01T13:07:42.099Z,55.88
2022-12-01T13:10:22.972Z,64.05
2022-12-01T13:12:58.191Z,62.60
2022-12-01T13:15:27.131Z,54.83
2022-12-01T13:17:58.169Z,61.45
2022-12-01T13:20:28.825Z,58.33
2022-12-01T13:22:59.005Z,60.70
2022-12-01T13:25:30.796Z,66.38
2022-12-01T13:28:00.953Z,61.17
2022-12-01T13:30:28.611Z,57.88
2022-12-01T13:33:02.254Z,64.93
2022-12-01T13:35:32.138Z,52.97
2022-12-01T13:38:29.388Z,65.43
2022-12-01T13:41:23.661Z,59.20
2022-12-01T13:44:04.612Z,62.45
2022-12-01T13:46:50.324Z,55.30
2022-12-01T13:52:29.663Z,60.58
2022-12-01T13:55:16.743Z,56.83
2022-12-01T13:57:49.338Z,49.95
2022-12-01T14:00:26.024Z,57.17
2022-12-01T14:03:30.912Z,57.67
2022-12-01T14:06:09.672Z,59.03
2022-12-01T14:08:38.660Z,57.17
2022-12-01T14:11:09.657Z,65.55
2022-12-01T14:13:50.185Z,60.95
2022-12-01T14:16:18.125Z,57.08
2022-12-01T14:18:51.377Z,56.30
2022-12-01T14:21:44.697Z,55.00
2022-12-01T14:24:23.212Z,57.67
2022-12-01T14:26:52.244Z,55.63
2022-12-01T14:29:32.610Z,53.22
2022-12-01T14:32:20.169Z,52.03
2022-12-01T14:34:53.261Z,58.53
2022-12-01T14:37:25.706Z,55.65
2022-12-01T14:39:59.066Z,58.10
2022-12-01T14:42:49.358Z,53.00
2022-12-01T14:45:22.406Z,52.88
2022-12-01T14:47:56.896Z,56.58
2022-12-01T14:50:29.446Z,48.77
2022-12-01T14:53:04.788Z,63.13
2022-12-01T14:58:06.383Z,59.08
2022-12-01T15:00:37.995Z,56.67
2022-12-01T15:03:10.651Z,57.72
2022-12-01T15:05:41.110Z,60.10
2022-12-01T15:08:40.816Z,58.40
2022-12-01T15:11:19.846Z,60.97
2022-12-01T15:13:50.340Z,67.47
2022-12-01T15:16:20.559Z,61.67
2022-12-01T15:18:48.405Z,61.85
2022-12-01T15:21:19.406Z,56.00
2022-12-01T15:23:56.658Z,55.58
2022-12-01T15:26:27.308Z,52.65
2022-12-01T15:29:16.835Z,59.28
2022-12-01T15:31:47.180Z,54.97
2022-12-01T15:34:19.043Z,57.80
2022-12-01T15:36:48.167Z,52.53
2022-12-01T15:39:19.828Z,55.70
2022-12-01T15:41:53.727Z,63.10
2022-12-01T15:44:26.819Z,57.47
2022-12-01T15:46:54.286Z,58.13
2022-12-01T15:49:27.555Z,61.95
2022-12-01T15:51:55.648Z,54.85
2022-12-01T15:54:27.476Z,65.95
2022-12-01T15:56:58.430Z,58.28
2022-12-01T15:59:30.890Z,53.90
2022-12-01T16:01:58.863Z,60.08
2022-12-01T16:04:29.143Z,61.20
2022-12-01T16:06:59.526Z,62.42
2022-12-01T16:09:33.044Z,60.20
2022-12-01T16:12:19.705Z,63.10
2022-12-01T16:14:53.419Z,60.45
2022-12-01T16:17:21.395Z,60.47
2022-12-01T16:19:49.100Z,63.90
2022-12-01T16:22:19.036Z,61.85
2022-12-01T16:24:50.833Z,58.63
2022-12-01T16:27:21.959Z,64.10
2022-12-01T16:29:51.839Z,74.60
2022-12-01T16:32:22.179Z,65.60
2022-12-01T16:34:51.381Z,62.15
2022-12-01T16:37:19.264Z,62.08
2022-12-01T16:39:48.063Z,69.78
2022-12-01T16:42:17.403Z,66.55
2022-12-01T16:44:46.489Z,63.45
2022-12-01T16:47:16.059Z,67.20
2022-12-01T16:49:43.821Z,65.57
2022-12-01T16:55:01.482Z,71.00
2022-12-01T16:57:29.024Z,57.42
2022-12-01T16:59:56.716Z,61.90
2022-12-01T17:02:24.522Z,62.33
2022-12-01T17:04:52.821Z,59.55
2022-12-01T17:07:20.646Z,56.05
2022-12-01T17:09:48.460Z,54.30
2022-12-01T17:12:17.292Z,47.90
2022-12-01T17:14:44.894Z,53.08
2022-12-01T17:17:12.360Z,48.50
2022-12-01T17:19:40.056Z,48.78
2022-12-01T17:22:07.607Z,48.92
2022-12-01T17:24:35.141Z,51.75
2022-12-01T17:27:03.014Z,56.28
2022-12-01T17:29:32.662Z,45.78
2022-12-01T17:32:00.165Z,56.17
2022-12-01T17:34:28.242Z,53.78
2022-12-01T17:36:56.821Z,50.22
2022-12-01T17:39:26.093Z,54.47
2022-12-01T17:41:55.414Z,52.90
2022-12-01T17:44:23.095Z,56.97
2022-12-01T17:46:56.732Z,49.30
2022-12-01T17:49:27.216Z,47.85
2022-12-01T17:51:55.130Z,55.03
2022-12-01T17:54:23.288Z,49.60
2022-12-01T17:56:51.642Z,50.65
2022-12-01T17:59:19.359Z,59.30
2022-12-01T18:01:47.575Z,55.92
2022-12-01T18:04:17.290Z,54.15
2022-12-01T18:06:49.227Z,54.38
2022-12-01T18:09:21.454Z,50.92
2022-12-01T18:11:49.496Z,55.08
2022-12-01T18:14:18.041Z,46.63
2022-12-01T18:16:46.155Z,53.40
2022-12-01T18:19:14.156Z,45.17
2022-12-01T18:21:45.212Z,55.53
2022-12-01T18:24:13.223Z,51.00
2022-12-01T18:26:41.939Z,50.95
2022-12-01T18:29:15.887Z,46.03
2022-12-01T18:31:44.184Z,42.78
2022-12-01T18:34:12.808Z,51.17
2022-12-01T18:36:41.616Z,47.95
2022-12-01T18:39:14.249Z,46.58
2022-12-01T18:41:41.937Z,38.00
2022-12-01T18:44:09.703Z,47.95
2022-12-01T18:46:37.695Z,37.85
2022-12-01T18:49:07.968Z,45.17
2022-12-01T18:51:37.814Z,39.20
2022-12-01T18:54:07.737Z,37.42
2022-12-01T18:56:37.032Z,33.17
2022-12-01T18:59:08.442Z,40.85
2022-12-01T19:01:38.268Z,42.03
2022-12-01T19:04:07.550Z,32.42
2022-12-01T19:06:37.067Z,36.28
2022-12-01T19:09:06.890Z,29.95
2022-12-01T19:11:36.340Z,38.70
2022-12-01T19:14:04.310Z,32.58
2022-12-01T19:16:31.929Z,34.60
2022-12-01T19:18:59.527Z,32.08
2022-12-01T19:21:26.966Z,33.20
2022-12-01T19:23:54.731Z,39.65
2022-12-01T19:26:23.927Z,44.92
2022-12-01T19:28:52.739Z,46.33
2022-12-01T19:31:22.616Z,44.13
2022-12-01T19:33:50.574Z,41.42
2022-12-01T19:36:21.020Z,42.03
2022-12-01T19:38:49.024Z,41.72
2022-12-01T19:41:20.222Z,36.80
2022-12-01T19:43:48.310Z,41.97
2022-12-01T19:46:19.868Z,41.92
2022-12-01T19:48:47.676Z,46.88
2022-12-01T19:51:18.671Z,43.58
2022-12-01T19:53:46.578Z,41.08
2022-12-01T19:56:14.102Z,31.48
2022-12-01T19:58:41.596Z,36.10
2022-12-01T20:01:10.933Z,32.30
2022-12-01T20:03:40.870Z,34.70
2022-12-01T20:06:10.959Z,29.83
2022-12-01T20:08:38.816Z,33.95
2022-12-01T20:11:07.376Z,38.90
2022-12-01T20:13:36.584Z,39.08
2022-12-01T20:16:06.444Z,35.60
2022-12-01T20:18:34.699Z,35.05
2022-12-01T20:21:09.188Z,35.33
2022-12-01T20:23:37.470Z,33.57
2022-12-01T20:26:07.526Z,38.15
2022-12-01T20:28:36.355Z,35.17
2022-12-01T20:31:15.125Z,35.65
2022-12-01T20:33:43.559Z,35.13
2022-12-01T20:36:12.621Z,40.65
2022-12-01T20:38:40.107Z,38.15
2022-12-01T20:41:07.927Z,40.30
2022-12-01T20:43:36.501Z,35.75
2022-12-01T20:46:04.675Z,37.75
2022-12-01T20:48:33.041Z,38.03
2022-12-01T20:51:01.331Z,38.67
2022-12-01T20:53:30.718Z,31.08
2022-12-01T20:55:58.457Z,34.03
2022-12-01T20:58:25.911Z,33.70
2022-12-01T21:00:54.087Z,36.55
2022-12-01T21:03:21.676Z,46.58
2022-12-01T21:05:49.406Z,41.78
2022-12-01T21:08:17.046Z,39.20
2022-12-01T21:10:46.995Z,38.95
2022-12-01T21:13:37.491Z,41.33
2022-12-01T21:16:12.398Z,34.22
2022-12-01T21:18:51.051Z,31.92
2022-12-01T21:21:24.823Z,32.53
2022-12-01T21:24:11.656Z,37.30
2022-12-01T21:26:43.387Z,39.40
2022-12-01T21:29:18.932Z,32.50
2022-12-01T21:31:47.197Z,39.53
2022-12-01T21:34:18.721Z,36.50
2022-12-01T21:36:48.250Z,40.83
2022-12-01T21:39:18.032Z,46.97
2022-12-01T21:41:47.998Z,38.95
2022-12-01T21:44:17.867Z,48.53
2022-12-01T21:46:45.949Z,38.33
2022-12-01T21:49:16.652Z,41.50
2022-12-01T21:51:44.685Z,38.30
2022-12-01T21:54:14.881Z,39.78
2022-12-01T21:56:42.474Z,42.60
2022-12-01T21:59:17.983Z,40.67
2022-12-01T22:01:45.625Z,45.25
2022-12-01T22:04:17.414Z,37.33
2022-12-01T22:06:48.420Z,40.53
2022-12-01T22:09:22.804Z,41.92
2022-12-01T22:11:53.777Z,45.40
2022-12-01T22:14:25.014Z,37.78
2022-12-01T22:16:58.356Z,38.85
2022-12-01T22:19:29.695Z,47.28
2022-12-01T22:22:16.487Z,43.55
2022-12-01T22:24:46.293Z,44.90
2022-12-01T22:27:28.103Z,47.88
2022-12-01T22:29:59.996Z,42.75
2022-12-01T22:32:39.312Z,42.97
2022-12-01T22:35:33.868Z,38.97
2022-12-01T22:38:20.230Z,40.83
2022-12-01T22:40:54.593Z,44.58
2022-12-01T22:43:43.003Z,38.28
2022-12-01T22:46:31.924Z,44.95
2022-12-01T22:49:02.356Z,41.25
2022-12-01T22:51:36.157Z,36.80
2022-12-01T22:54:23.271Z,44.53
2022-12-01T22:56:54.930Z,44.05
2022-12-01T22:59:24.058Z,40.00
2022-12-01T23:01:55.544Z,47.00
2022-12-01T23:04:27.660Z,50.35
2022-12-01T23:07:09.301Z,44.33
2022-12-01T23:09:40.629Z,41.70
2022-12-01T23:12:33.338Z,42.72
2022-12-01T23:15:16.609Z,51.15
2022-12-01T23:17:45.496Z,46.63
2022-12-01T23:20:26.997Z,47.72
2022-12-01T23:22:58.219Z,43.38
2022-12-01T23:25:27.223Z,40.00
2022-12-01T23:27:58.653Z,42.17
2022-12-01T23:30:26.609Z,38.30
2022-12-01T23:33:05.085Z,40.13
2022-12-01T23:35:39.211Z,39.13
2022-12-01T23:38:10.090Z,38.25
2022-12-01T23:40:37.920Z,37.55
2022-12-01T23:43:16.552Z,40.95
2022-12-01T23:45:45.205Z,37.72
2022-12-01T23:48:20.203Z,42.47
2022-12-01T23:50:49.751Z,42.83
2022-12-01T23:53:25.547Z,35.92
2022-12-01T23:55:53.011Z,36.80
2022-12-01T23:58:20.578Z,37.03
